Time;durP1;ratioP1;P1;durP2;ratioP2;P2;SDS_P1;SDS_P2;PMS_P1;PMS_P2;Temp;Humidity;BMP_temperature;BMP_pressure;BME280_temperature;BME280_humidity;BME280_pressure;Samples;Min_cycle;Max_cycle;Signal;HPM_P1;HPM_P2
2023/05/23 00:01:37;;;;;;;17.40;10.45;;;16.00;99.90;;;;;;4990015;28;20034;-78
2023/05/23 00:04:03;;;;;;;12.68;9.40;;;15.90;99.90;;;;;;4990770;28;20568;-78
2023/05/23 00:06:29;;;;;;;16.00;9.90;;;15.90;99.90;;;;;;4990054;28;20033;-78
2023/05/23 00:08:55;;;;;;;12.68;9.32;;;15.90;99.90;;;;;;4991271;28;20036;-78
2023/05/23 00:11:25;;;;;;;11.63;9.63;;;15.90;99.90;;;;;;4991757;28;20073;-78
2023/05/23 00:13:51;;;;;;;11.65;9.27;;;15.90;99.90;;;;;;4991596;28;20053;-78
2023/05/23 00:16:17;;;;;;;12.57;9.98;;;15.80;99.90;;;;;;4991867;28;20045;-78
2023/05/23 00:18:44;;;;;;;11.93;9.27;;;15.80;99.90;;;;;;4991410;28;20478;-78
2023/05/23 00:21:10;;;;;;;14.60;9.63;;;15.80;99.90;;;;;;4991670;28;20145;-78
2023/05/23 00:23:37;;;;;;;13.02;9.23;;;15.80;99.90;;;;;;4991152;28;20069;-78
2023/05/23 00:26:02;;;;;;;11.93;9.18;;;15.80;99.90;;;;;;4991099;28;20655;-78
2023/05/23 00:28:28;;;;;;;13.45;9.75;;;15.70;99.90;;;;;;4992134;28;20034;-78
2023/05/23 00:30:53;;;;;;;12.57;9.82;;;15.70;99.90;;;;;;4991335;28;20029;-78
2023/05/23 00:33:20;;;;;;;13.43;9.35;;;15.70;99.90;;;;;;4990203;28;20115;-78
2023/05/23 00:35:47;;;;;;;15.68;9.80;;;15.70;99.90;;;;;;4990503;28;20027;-78
2023/05/23 00:38:13;;;;;;;10.70;9.15;;;15.70;99.90;;;;;;4989003;28;20062;-78
2023/05/23 00:40:38;;;;;;;13.20;9.52;;;15.70;99.90;;;;;;4990636;28;20064;-78
2023/05/23 00:43:04;;;;;;;14.75;9.60;;;15.70;99.90;;;;;;4990144;28;20081;-78
2023/05/23 00:45:30;;;;;;;13.75;9.20;;;15.70;99.90;;;;;;4990638;28;20033;-78
2023/05/23 00:47:57;;;;;;;11.65;9.18;;;15.60;99.90;;;;;;4990656;28;20030;-78
2023/05/23 00:50:24;;;;;;;12.57;9.73;;;15.70;99.90;;;;;;4990272;28;20026;-78
2023/05/23 00:52:52;;;;;;;10.68;9.13;;;15.70;99.90;;;;;;4990519;28;20029;-78
2023/05/23 00:55:17;;;;;;;10.27;9.05;;;15.70;99.90;;;;;;4988745;28;20064;-78
2023/05/23 00:57:43;;;;;;;13.45;9.40;;;15.70;99.90;;;;;;4988531;28;20038;-78
2023/05/23 01:00:12;;;;;;;10.60;9.30;;;15.60;99.90;;;;;;4990645;28;20160;-78
2023/05/23 01:02:44;;;;;;;11.02;9.05;;;15.60;99.90;;;;;;4988587;28;20551;-78
2023/05/23 01:05:13;;;;;;;16.30;8.95;;;15.60;99.90;;;;;;4989716;28;20030;-78
2023/05/23 01:07:39;;;;;;;12.27;9.15;;;15.60;99.90;;;;;;4989631;28;20037;-78
2023/05/23 01:10:05;;;;;;;11.82;9.57;;;15.60;99.90;;;;;;4992308;28;20026;-78
2023/05/23 01:13:02;;;;;;;12.45;9.07;;;15.60;99.90;;;;;;4991109;28;20030;-78
2023/05/23 01:15:51;;;;;;;10.25;8.95;;;15.50;99.90;;;;;;4989845;28;20027;-78
2023/05/23 01:18:20;;;;;;;12.52;9.75;;;15.50;99.90;;;;;;4989416;28;20121;-78
2023/05/23 01:20:55;;;;;;;10.75;9.65;;;15.50;99.90;;;;;;4988633;28;20030;-78
2023/05/23 01:24:02;;;;;;;15.48;10.82;;;15.50;99.90;;;;;;4989666;28;20034;-78
2023/05/23 01:26:34;;;;;;;11.48;10.27;;;15.50;99.90;;;;;;4987288;28;20033;-78
2023/05/23 01:29:13;;;;;;;11.65;9.20;;;15.50;99.90;;;;;;4988878;28;20054;-78
2023/05/23 01:31:46;;;;;;;12.65;9.68;;;15.50;99.90;;;;;;4987680;28;20057;-77
2023/05/23 01:34:13;;;;;;;14.90;11.32;;;15.40;99.90;;;;;;4986502;28;20464;-78
2023/05/23 01:36:41;;;;;;;15.82;10.68;;;15.50;99.90;;;;;;4986732;28;20046;-78
2023/05/23 01:39:06;;;;;;;15.48;11.00;;;15.40;99.90;;;;;;5031402;23;20049;-88
2023/05/23 01:41:32;;;;;;;13.48;10.52;;;15.40;99.90;;;;;;5002207;28;20033;-88
2023/05/23 01:43:58;;;;;;;16.60;11.95;;;15.40;99.90;;;;;;5004352;28;20061;-88
2023/05/23 01:46:25;;;;;;;18.55;12.18;;;15.40;99.90;;;;;;4998943;28;20112;-88
2023/05/23 01:48:52;;;;;;;14.00;11.18;;;15.40;99.90;;;;;;4997618;28;20053;-88
2023/05/23 01:51:18;;;;;;;13.57;11.10;;;15.30;99.90;;;;;;4997664;28;20030;-87
2023/05/23 01:53:44;;;;;;;13.95;11.55;;;15.30;99.90;;;;;;4998563;28;20379;-86
2023/05/23 01:56:10;;;;;;;15.75;11.38;;;15.30;99.90;;;;;;4996739;28;20041;-86
2023/05/23 01:58:35;;;;;;;15.70;12.95;;;15.30;99.90;;;;;;4997911;28;20033;-86
2023/05/23 02:01:01;;;;;;;15.10;11.57;;;15.30;99.90;;;;;;4999278;28;20030;-86
2023/05/23 02:03:27;;;;;;;16.95;11.75;;;15.30;99.90;;;;;;4997248;28;20968;-86
2023/05/23 02:05:52;;;;;;;15.15;11.68;;;15.20;99.90;;;;;;4997650;28;20018;-86
2023/05/23 02:08:18;;;;;;;14.85;12.07;;;15.20;99.90;;;;;;4996404;28;20541;-86
2023/05/23 02:10:43;;;;;;;14.60;11.88;;;15.20;99.90;;;;;;4996914;28;20022;-86
2023/05/23 02:13:09;;;;;;;16.30;11.93;;;15.20;99.90;;;;;;4997216;28;20088;-86
2023/05/23 02:15:34;;;;;;;15.80;12.38;;;15.20;99.90;;;;;;5000474;28;20442;-86
2023/05/23 02:18:01;;;;;;;14.00;12.05;;;15.10;99.90;;;;;;5000534;28;20040;-86
2023/05/23 02:20:27;;;;;;;16.77;12.77;;;15.10;99.90;;;;;;5000576;28;20084;-86
2023/05/23 02:22:53;;;;;;;16.38;12.73;;;15.10;99.90;;;;;;5000988;28;20042;-87
2023/05/23 02:25:18;;;;;;;17.58;12.77;;;15.10;99.90;;;;;;5001231;28;20462;-86
2023/05/23 02:27:44;;;;;;;17.55;12.57;;;15.10;99.90;;;;;;4999760;28;20430;-87
2023/05/23 02:30:10;;;;;;;15.35;11.93;;;15.10;99.90;;;;;;5001304;28;20030;-87
2023/05/23 02:32:36;;;;;;;16.10;12.73;;;15.10;99.90;;;;;;5000587;28;20167;-86
2023/05/23 02:35:02;;;;;;;18.40;13.35;;;15.10;99.90;;;;;;4999959;28;20026;-86
2023/05/23 02:37:28;;;;;;;17.48;13.82;;;15.00;99.90;;;;;;4999808;28;20056;-88
2023/05/23 02:39:53;;;;;;;16.58;13.52;;;15.00;99.90;;;;;;5000616;28;20482;-88
2023/05/23 02:42:19;;;;;;;17.85;12.63;;;15.00;99.90;;;;;;5001157;28;20065;-88
2023/05/23 02:44:44;;;;;;;17.55;12.98;;;15.00;99.90;;;;;;5000495;28;20160;-88
2023/05/23 02:47:10;;;;;;;19.60;13.15;;;15.00;99.90;;;;;;5000332;28;20510;-88
2023/05/23 02:49:36;;;;;;;14.13;12.48;;;14.90;99.90;;;;;;5000224;28;20247;-88
2023/05/23 02:52:01;;;;;;;17.75;13.40;;;14.90;99.90;;;;;;4999611;28;20021;-89
2023/05/23 02:54:27;;;;;;;14.68;12.73;;;14.80;99.90;;;;;;4998489;28;21452;-89
2023/05/23 02:56:54;;;;;;;16.27;12.32;;;14.80;99.90;;;;;;4999692;28;20522;-88
2023/05/23 02:59:22;;;;;;;16.75;13.93;;;14.80;99.90;;;;;;5000026;28;20073;-88
2023/05/23 03:01:48;;;;;;;21.73;14.23;;;14.70;99.90;;;;;;4998587;28;20049;-88
2023/05/23 03:04:13;;;;;;;16.88;12.85;;;14.70;99.90;;;;;;4999114;28;20037;-88
2023/05/23 03:06:40;;;;;;;18.25;14.52;;;14.60;99.90;;;;;;4999731;28;20022;-89
2023/05/23 03:09:07;;;;;;;18.38;14.35;;;14.60;99.90;;;;;;4999290;28;20052;-88
2023/05/23 03:11:33;;;;;;;17.85;14.65;;;14.60;99.90;;;;;;4999412;28;20125;-88
2023/05/23 03:13:58;;;;;;;17.80;14.73;;;14.50;99.90;;;;;;4998528;28;20101;-88
2023/05/23 03:16:24;;;;;;;19.95;14.57;;;14.50;99.90;;;;;;4998548;28;20117;-88
2023/05/23 03:18:50;;;;;;;25.27;14.85;;;14.50;99.90;;;;;;4998378;28;20061;-88
2023/05/23 03:21:15;;;;;;;17.92;15.30;;;14.50;99.90;;;;;;4999457;28;20028;-88
2023/05/23 03:23:42;;;;;;;16.48;14.05;;;14.50;99.90;;;;;;4998071;28;20397;-91
2023/05/23 03:26:07;;;;;;;17.92;14.75;;;14.40;99.90;;;;;;4997041;28;20033;-90
2023/05/23 03:28:33;;;;;;;18.27;14.02;;;14.40;99.90;;;;;;4998075;28;20849;-88
2023/05/23 03:30:59;;;;;;;19.60;13.98;;;14.40;99.90;;;;;;4999158;28;20057;-89
2023/05/23 03:33:24;;;;;;;18.67;14.23;;;14.40;99.90;;;;;;4997949;28;20029;-88
2023/05/23 03:35:50;;;;;;;20.90;15.38;;;14.40;99.90;;;;;;5000444;28;20041;-88
2023/05/23 03:38:15;;;;;;;18.23;15.05;;;14.40;99.90;;;;;;4996702;28;21523;-88
2023/05/23 03:40:41;;;;;;;19.80;15.55;;;14.30;99.90;;;;;;5000147;28;20147;-88
2023/05/23 03:43:07;;;;;;;20.70;15.45;;;14.30;99.90;;;;;;4998417;28;20039;-90
2023/05/23 03:45:33;;;;;;;19.23;15.27;;;14.30;99.90;;;;;;4999023;28;20379;-88
2023/05/23 03:47:59;;;;;;;20.90;16.67;;;14.30;99.90;;;;;;4980333;28;20049;-89
2023/05/23 03:50:26;;;;;;;18.52;16.20;;;14.30;99.90;;;;;;4999806;28;20037;-88
2023/05/23 03:52:53;;;;;;;18.50;15.10;;;14.30;99.90;;;;;;4999056;28;20042;-88
2023/05/23 03:55:24;;;;;;;17.02;15.23;;;14.30;99.90;;;;;;4998221;28;20077;-88
2023/05/23 03:57:50;;;;;;;22.83;15.90;;;14.30;99.90;;;;;;4998648;28;20453;-88
2023/05/23 04:00:17;;;;;;;20.83;16.17;;;14.30;99.90;;;;;;4999627;28;20042;-89
2023/05/23 04:02:45;;;;;;;19.98;15.93;;;14.30;99.90;;;;;;4998823;28;20045;-88
2023/05/23 04:05:12;;;;;;;24.10;16.05;;;14.30;99.90;;;;;;4998918;28;20040;-88
2023/05/23 04:07:40;;;;;;;21.35;15.50;;;14.30;99.90;;;;;;4997530;28;20026;-90
2023/05/23 04:10:06;;;;;;;19.05;15.48;;;14.30;99.90;;;;;;4999958;28;20041;-88
2023/05/23 04:12:32;;;;;;;20.48;15.77;;;14.30;99.90;;;;;;5002150;28;20040;-89
2023/05/23 04:14:57;;;;;;;20.83;16.23;;;14.30;99.90;;;;;;4999903;28;20026;-84
2023/05/23 04:17:24;;;;;;;22.85;16.23;;;14.30;99.90;;;;;;5000029;28;20049;-83
2023/05/23 04:19:50;;;;;;;21.13;15.93;;;14.30;99.90;;;;;;5000076;28;20031;-84
2023/05/23 04:22:16;;;;;;;20.05;16.38;;;14.30;99.90;;;;;;5002085;28;20813;-83
2023/05/23 04:24:44;;;;;;;19.52;15.98;;;14.40;99.90;;;;;;5000475;28;20117;-83
2023/05/23 04:27:09;;;;;;;22.35;16.52;;;14.40;99.90;;;;;;5000217;28;20057;-84
2023/05/23 04:29:35;;;;;;;21.30;16.33;;;14.40;99.90;;;;;;5002852;28;20072;-83
2023/05/23 04:32:01;;;;;;;19.90;16.65;;;14.40;99.90;;;;;;5001187;28;20038;-83
2023/05/23 04:34:27;;;;;;;22.48;17.42;;;14.40;99.90;;;;;;5002682;28;20042;-83
2023/05/23 04:36:53;;;;;;;21.42;16.20;;;14.50;99.90;;;;;;5003004;28;20022;-84
2023/05/23 04:39:19;;;;;;;20.00;16.90;;;14.50;99.90;;;;;;5005814;28;20112;-83
2023/05/23 04:41:45;;;;;;;22.92;17.52;;;14.50;99.90;;;;;;4989251;28;20061;-84
2023/05/23 04:44:11;;;;;;;23.48;17.25;;;14.60;99.90;;;;;;5003510;28;20494;-83
2023/05/23 04:46:40;;;;;;;22.55;18.38;;;14.60;99.90;;;;;;4999887;28;20143;-83
2023/05/23 04:49:07;;;;;;;23.10;18.60;;;14.70;99.90;;;;;;4996314;28;20037;-83
2023/05/23 04:51:32;;;;;;;24.55;18.65;;;14.70;99.90;;;;;;4999671;28;20034;-83
2023/05/23 04:53:58;;;;;;;27.55;18.83;;;14.80;99.90;;;;;;4981109;28;20503;-84
2023/05/23 04:56:26;;;;;;;22.73;18.00;;;14.90;99.90;;;;;;4999204;28;20045;-85
2023/05/23 04:58:52;;;;;;;22.85;18.58;;;14.90;99.90;;;;;;5000788;28;20034;-84
2023/05/23 05:01:18;;;;;;;21.98;17.83;;;15.00;99.90;;;;;;4998826;28;20034;-82
2023/05/23 05:03:43;;;;;;;23.85;18.42;;;15.10;99.90;;;;;;4997647;28;20088;-75
2023/05/23 05:06:09;;;;;;;20.85;17.77;;;15.10;99.90;;;;;;4993791;28;20030;-75
2023/05/23 05:08:35;;;;;;;21.85;17.33;;;15.20;99.90;;;;;;4993330;28;20074;-75
2023/05/23 05:11:02;;;;;;;25.70;18.80;;;15.30;99.90;;;;;;4992584;28;20490;-75
2023/05/23 05:13:28;;;;;;;24.98;17.60;;;15.40;99.90;;;;;;4992394;28;20042;-75
2023/05/23 05:15:53;;;;;;;20.40;17.73;;;15.50;99.90;;;;;;4993652;28;20026;-75
2023/05/23 05:18:19;;;;;;;22.55;18.83;;;15.50;99.90;;;;;;4992245;28;20065;-75
2023/05/23 05:20:45;;;;;;;22.05;17.55;;;15.60;99.90;;;;;;4991658;28;20037;-75
2023/05/23 05:23:10;;;;;;;24.38;18.95;;;15.70;99.90;;;;;;4993332;28;20046;-74
2023/05/23 05:25:37;;;;;;;26.90;18.52;;;15.80;99.90;;;;;;4993081;28;21401;-75
2023/05/23 05:28:04;;;;;;;24.35;18.35;;;15.90;99.90;;;;;;4992804;28;20026;-75
2023/05/23 05:30:33;;;;;;;20.85;17.30;;;16.00;99.90;;;;;;4993754;28;20034;-84
2023/05/23 05:33:00;;;;;;;22.58;18.10;;;16.00;99.90;;;;;;4995306;28;20038;-84
2023/05/23 05:35:26;;;;;;;20.00;17.27;;;16.10;99.90;;;;;;4995721;28;20025;-84
2023/05/23 05:37:52;;;;;;;23.65;18.60;;;16.10;99.90;;;;;;4995718;28;20038;-84
2023/05/23 05:40:17;;;;;;;23.38;18.02;;;16.20;99.90;;;;;;4995568;28;20034;-84
2023/05/23 05:42:43;;;;;;;24.52;19.45;;;16.20;99.90;;;;;;4995778;28;20103;-84
2023/05/23 05:45:10;;;;;;;22.52;18.40;;;16.20;99.90;;;;;;4996028;28;20022;-84
2023/05/23 05:47:37;;;;;;;24.77;17.70;;;16.20;99.90;;;;;;4995083;28;20078;-84
2023/05/23 05:50:08;;;;;;;25.55;18.85;;;16.30;99.90;;;;;;4979097;28;20069;-84
2023/05/23 05:52:37;;;;;;;22.70;17.42;;;16.40;99.90;;;;;;4997572;28;20042;-84
2023/05/23 05:55:06;;;;;;;19.77;16.67;;;16.50;99.90;;;;;;5000827;28;20071;-83
2023/05/23 05:57:32;;;;;;;20.60;17.17;;;16.70;99.90;;;;;;5000130;28;20038;-84
2023/05/23 05:59:58;;;;;;;20.45;16.77;;;16.70;99.90;;;;;;5001227;28;20037;-84
2023/05/23 06:02:24;;;;;;;22.55;17.55;;;16.90;99.90;;;;;;5000675;28;20092;-83
2023/05/23 06:04:49;;;;;;;20.65;16.77;;;16.90;99.90;;;;;;4994569;28;20423;-83
2023/05/23 06:07:15;;;;;;;22.23;17.65;;;17.10;99.90;;;;;;4994516;28;20031;-84
2023/05/23 06:09:40;;;;;;;20.98;17.95;;;17.20;99.90;;;;;;4996992;28;20100;-84
2023/05/23 06:12:06;;;;;;;23.70;18.63;;;17.30;99.90;;;;;;4980665;28;20054;-83
2023/05/23 06:14:32;;;;;;;22.98;19.50;;;17.40;99.90;;;;;;4997852;28;20044;-84
2023/05/23 06:16:58;;;;;;;26.27;18.85;;;17.50;99.90;;;;;;4998579;28;20088;-82
2023/05/23 06:19:24;;;;;;;27.50;20.92;;;17.70;99.90;;;;;;5003315;28;20115;-83
2023/05/23 06:21:49;;;;;;;24.88;19.40;;;17.90;99.90;;;;;;4999216;28;20054;-82
2023/05/23 06:24:15;;;;;;;25.00;19.52;;;18.00;99.90;;;;;;4999191;28;20748;-83
2023/05/23 06:26:40;;;;;;;28.25;20.67;;;18.00;99.90;;;;;;4997704;28;20034;-83
2023/05/23 06:29:06;;;;;;;25.90;20.15;;;18.20;99.90;;;;;;4999352;28;20032;-83
2023/05/23 06:31:31;;;;;;;26.50;20.98;;;18.20;99.90;;;;;;4999790;28;20040;-83
2023/05/23 06:33:57;;;;;;;26.38;20.17;;;18.30;99.90;;;;;;4998616;28;20049;-81
2023/05/23 06:36:23;;;;;;;30.27;21.52;;;18.40;99.90;;;;;;4996704;28;20030;-85
2023/05/23 06:38:48;;;;;;;28.45;22.23;;;18.40;99.90;;;;;;4994794;28;20045;-85
2023/05/23 06:41:14;;;;;;;29.50;22.15;;;18.50;99.90;;;;;;4987615;28;20034;-83
2023/05/23 06:43:39;;;;;;;25.00;21.15;;;18.60;99.90;;;;;;4989645;28;20056;-85
2023/05/23 06:46:05;;;;;;;28.30;22.17;;;18.60;99.90;;;;;;4989575;28;20029;-84
2023/05/23 06:48:31;;;;;;;32.25;22.65;;;18.60;99.90;;;;;;4984506;28;20034;-85
2023/05/23 06:50:56;;;;;;;24.60;20.20;;;18.60;99.90;;;;;;4986898;28;20034;-84
2023/05/23 06:53:22;;;;;;;27.45;20.95;;;18.60;99.90;;;;;;4992759;28;20303;-84
2023/05/23 06:55:48;;;;;;;31.60;21.52;;;18.70;99.90;;;;;;4993262;28;20053;-85
2023/05/23 06:58:13;;;;;;;26.80;21.05;;;18.80;99.90;;;;;;4985550;28;20122;-86
2023/05/23 07:00:39;;;;;;;25.70;19.10;;;18.70;99.90;;;;;;4991953;28;20026;-85
2023/05/23 07:03:06;;;;;;;25.75;21.13;;;18.80;99.90;;;;;;4996091;28;20042;-85
2023/05/23 07:05:33;;;;;;;25.70;21.17;;;18.80;99.90;;;;;;4995546;28;20564;-83
2023/05/23 07:07:59;;;;;;;32.65;21.95;;;19.00;99.90;;;;;;4995458;28;20096;-84
2023/05/23 07:10:25;;;;;;;26.70;20.25;;;18.90;99.90;;;;;;4995981;28;20120;-85
2023/05/23 07:12:50;;;;;;;27.05;19.77;;;18.90;99.90;;;;;;4995266;28;20033;-85
2023/05/23 07:15:16;;;;;;;27.63;21.70;;;19.00;99.90;;;;;;4998629;28;20038;-84
2023/05/23 07:17:42;;;;;;;27.58;21.55;;;19.00;99.90;;;;;;4994206;28;20030;-84
2023/05/23 07:20:08;;;;;;;28.73;20.98;;;19.00;99.90;;;;;;4995999;28;20030;-85
2023/05/23 07:22:33;;;;;;;28.60;22.25;;;18.90;99.90;;;;;;4994114;28;20045;-85
2023/05/23 07:24:59;;;;;;;24.40;20.88;;;18.80;99.90;;;;;;4996416;28;20038;-82
2023/05/23 07:27:25;;;;;;;26.08;20.13;;;18.80;99.90;;;;;;4997303;28;20029;-84
2023/05/23 07:29:51;;;;;;;31.35;21.48;;;18.80;99.90;;;;;;4978014;28;20941;-84
2023/05/23 07:32:17;;;;;;;24.95;20.38;;;18.80;99.90;;;;;;4999938;28;20056;-84
2023/05/23 07:34:42;;;;;;;30.05;21.75;;;18.80;99.90;;;;;;4999218;28;20105;-84
2023/05/23 07:37:08;;;;;;;26.02;20.10;;;18.80;99.90;;;;;;4997518;28;20030;-84
2023/05/23 07:39:34;;;;;;;31.85;22.10;;;18.80;99.90;;;;;;4999894;28;20042;-86
2023/05/23 07:41:59;;;;;;;31.00;23.13;;;18.80;99.90;;;;;;5008820;22;20111;-83
2023/05/23 07:44:25;;;;;;;29.13;22.50;;;18.80;99.90;;;;;;4993359;28;20046;-82
2023/05/23 07:46:50;;;;;;;29.83;21.77;;;18.70;99.90;;;;;;4993580;28;20069;-82
2023/05/23 07:49:16;;;;;;;25.92;20.45;;;18.70;99.90;;;;;;4990871;28;20034;-82
2023/05/23 07:51:42;;;;;;;28.88;22.58;;;18.70;99.90;;;;;;4991744;28;20026;-81
2023/05/23 07:54:08;;;;;;;28.63;22.23;;;18.80;99.90;;;;;;4992236;28;20072;-82
2023/05/23 07:56:33;;;;;;;27.73;23.20;;;18.90;99.90;;;;;;4990957;28;20251;-83
2023/05/23 07:58:59;;;;;;;27.75;22.83;;;19.00;99.90;;;;;;4992402;28;20029;-82
2023/05/23 08:01:24;;;;;;;27.00;22.20;;;19.00;99.90;;;;;;4991539;28;20053;-82
2023/05/23 08:03:50;;;;;;;25.90;21.52;;;19.10;99.90;;;;;;4993429;28;20928;-81
2023/05/23 08:06:15;;;;;;;30.63;22.17;;;19.10;99.90;;;;;;4992074;28;20033;-81
2023/05/23 08:08:42;;;;;;;31.38;22.15;;;19.10;99.90;;;;;;4992000;28;20096;-81
2023/05/23 08:11:08;;;;;;;29.33;21.98;;;19.10;99.90;;;;;;4992727;28;20098;-82
2023/05/23 08:13:34;;;;;;;30.13;21.40;;;19.10;99.90;;;;;;4993277;28;20041;-81
2023/05/23 08:15:59;;;;;;;28.88;23.55;;;19.10;99.90;;;;;;4994163;28;20061;-81
2023/05/23 08:18:25;;;;;;;27.70;22.77;;;19.00;99.90;;;;;;4988848;28;20034;-82
2023/05/23 08:20:51;;;;;;;26.25;20.30;;;19.00;99.90;;;;;;4992181;28;20511;-81
2023/05/23 08:23:16;;;;;;;25.65;20.20;;;19.10;99.90;;;;;;4991753;28;20169;-82
2023/05/23 08:25:42;;;;;;;27.38;20.40;;;19.20;99.90;;;;;;4992557;28;20045;-80
2023/05/23 08:28:08;;;;;;;28.85;21.42;;;19.40;99.90;;;;;;4989083;28;20149;-81
2023/05/23 08:30:34;;;;;;;25.13;20.60;;;19.50;99.90;;;;;;4992360;28;20076;-81
2023/05/23 08:33:03;;;;;;;26.88;20.83;;;19.50;99.90;;;;;;4994449;28;20045;-82
2023/05/23 08:35:33;;;;;;;28.00;21.15;;;19.40;99.90;;;;;;4990881;28;20651;-81
2023/05/23 08:38:00;;;;;;;27.88;20.25;;;19.50;99.90;;;;;;4987714;28;20056;-81
2023/05/23 08:40:28;;;;;;;25.08;20.15;;;19.50;99.90;;;;;;4992363;28;20293;-82
2023/05/23 08:42:53;;;;;;;26.67;19.65;;;19.40;99.90;;;;;;4991753;28;20155;-81
2023/05/23 08:45:19;;;;;;;26.92;21.38;;;19.50;99.90;;;;;;4991728;28;20052;-81
2023/05/23 08:47:45;;;;;;;21.40;18.38;;;19.70;99.90;;;;;;4990112;28;20026;-82
2023/05/23 08:50:13;;;;;;;27.48;21.13;;;19.70;99.90;;;;;;4994626;28;20034;-82
2023/05/23 08:52:58;;;;;;;28.25;21.55;;;19.70;99.90;;;;;;4992577;28;20100;-81
2023/05/23 08:55:27;;;;;;;;;;;19.70;99.90;;;;;;4991328;28;20486;-82
2023/05/23 08:57:59;;;;;;;25.02;20.02;;;19.70;99.90;;;;;;4989715;28;19980;-81
2023/05/23 09:00:26;;;;;;;26.95;20.23;;;19.80;99.90;;;;;;4992217;28;20033;-81
2023/05/23 09:02:53;;;;;;;27.23;20.80;;;19.70;99.90;;;;;;4991211;28;21492;-82
2023/05/23 09:05:19;;;;;;;24.20;19.10;;;19.70;99.90;;;;;;4990970;28;20044;-82
2023/05/23 09:07:46;;;;;;;26.85;20.65;;;19.70;99.90;;;;;;4994430;28;20042;-82
2023/05/23 09:10:15;;;;;;;28.98;21.48;;;19.60;99.90;;;;;;4995580;28;20034;-81
2023/05/23 09:12:42;;;;;;;26.52;22.52;;;19.60;99.90;;;;;;4994174;28;20172;-81
2023/05/23 09:15:09;;;;;;;27.92;21.30;;;19.50;99.90;;;;;;4994139;28;20033;-82
2023/05/23 09:17:35;;;;;;;25.38;20.67;;;19.40;99.90;;;;;;4993493;28;20061;-81
2023/05/23 09:20:04;;;;;;;24.88;20.98;;;19.30;99.90;;;;;;4993858;28;20026;-81
2023/05/23 09:22:29;;;;;;;27.25;20.58;;;19.50;99.90;;;;;;4995969;28;20050;-81
2023/05/23 09:24:55;;;;;;;25.10;20.58;;;19.60;99.90;;;;;;4993652;28;20141;-81
2023/05/23 09:27:21;;;;;;;25.92;21.02;;;19.70;99.90;;;;;;4995925;28;20052;-82
2023/05/23 09:29:48;;;;;;;28.40;21.95;;;19.70;99.90;;;;;;4999558;28;21475;-81
2023/05/23 09:32:16;;;;;;;31.38;23.20;;;19.70;99.90;;;;;;4995687;28;20022;-81
2023/05/23 09:35:10;;;;;;;27.55;22.30;;;19.70;99.90;;;;;;4996288;28;20022;-82
2023/05/23 09:37:44;;;;;;;30.08;22.70;;;19.60;99.90;;;;;;4997920;28;20038;-81
2023/05/23 09:40:12;;;;;;;32.17;23.75;;;19.40;99.90;;;;;;4994308;28;20042;-81
2023/05/23 09:42:45;;;;;;;32.70;22.63;;;19.40;99.90;;;;;;4993192;28;20148;-77
2023/05/23 09:45:13;;;;;;;30.85;22.00;;;19.20;99.90;;;;;;4994574;28;20060;-78
2023/05/23 09:47:45;;;;;;;29.35;22.95;;;19.10;99.90;;;;;;4994771;28;20490;-80
2023/05/23 09:50:12;;;;;;;32.47;22.33;;;19.10;99.90;;;;;;4990181;28;20797;-78
2023/05/23 09:52:37;;;;;;;29.17;22.58;;;19.10;99.90;;;;;;4992397;28;20030;-79
2023/05/23 09:55:03;;;;;;;28.98;23.10;;;19.10;99.90;;;;;;4994433;28;20030;-81
2023/05/23 09:57:33;;;;;;;28.75;22.77;;;19.10;99.90;;;;;;4993919;28;20715;-78
2023/05/23 10:00:01;;;;;;;27.88;22.75;;;19.10;99.90;;;;;;4992685;28;20049;-78
2023/05/23 10:02:58;;;;;;;25.35;20.40;;;19.00;99.90;;;;;;4976900;28;20177;-76
2023/05/23 10:05:42;;;;;;;26.15;20.27;;;19.00;99.90;;;;;;4993247;28;20100;-78
2023/05/23 10:08:21;;;;;;;28.77;21.13;;;19.10;99.90;;;;;;4989197;28;20038;-76
2023/05/23 10:10:50;;;;;;;27.50;20.45;;;19.10;99.90;;;;;;4991606;28;20037;-79
2023/05/23 10:13:16;;;;;;;32.40;22.60;;;19.10;99.90;;;;;;4991826;28;21286;-77
2023/05/23 10:15:42;;;;;;;29.83;22.08;;;19.10;99.90;;;;;;4992643;28;20533;-78
2023/05/23 10:18:27;;;;;;;30.80;22.50;;;19.10;99.90;;;;;;4991276;28;20030;-76
2023/05/23 10:20:56;;;;;;;30.05;21.58;;;19.10;99.90;;;;;;4996791;28;20034;-80
2023/05/23 10:23:22;;;;;;;27.73;20.75;;;19.00;99.90;;;;;;4999398;28;20052;-79
2023/05/23 10:25:49;;;;;;;25.20;19.70;;;19.00;99.90;;;;;;4998611;28;20026;-77
2023/05/23 10:28:15;;;;;;;22.67;18.77;;;19.20;99.90;;;;;;4994229;28;20049;-78
2023/05/23 10:30:41;;;;;;;24.13;18.60;;;19.30;99.90;;;;;;4998893;28;20059;-79
2023/05/23 10:33:08;;;;;;;26.33;19.75;;;19.50;99.90;;;;;;4999043;28;20141;-79
2023/05/23 10:35:58;;;;;;;21.95;18.67;;;19.60;99.90;;;;;;4994845;28;20034;-86
2023/05/23 10:38:40;;;;;;;25.55;18.38;;;19.90;99.90;;;;;;5000259;28;20137;-79
2023/05/23 10:41:12;;;;;;;22.10;18.10;;;20.10;99.90;;;;;;5001962;28;20033;-79
2023/05/23 10:43:54;;;;;;;21.42;17.50;;;20.20;99.90;;;;;;4998133;28;20077;-79
2023/05/23 10:46:22;;;;;;;23.42;17.13;;;20.50;99.90;;;;;;4995844;28;21450;-81
2023/05/23 10:48:56;;;;;;;18.85;15.93;;;20.70;99.90;;;;;;4996565;28;20041;-78
2023/05/23 10:51:21;;;;;;;22.08;15.25;;;20.90;99.90;;;;;;4997969;28;20035;-80
2023/05/23 10:53:53;;;;;;;19.75;15.07;;;21.20;99.90;;;;;;4998083;28;20033;-79
2023/05/23 10:56:23;;;;;;;18.90;15.48;;;21.70;99.90;;;;;;4996599;28;20017;-84
2023/05/23 10:58:53;;;;;;;15.82;13.85;;;22.00;99.90;;;;;;4995230;28;20121;-79
2023/05/23 11:01:19;;;;;;;19.42;14.88;;;22.40;99.90;;;;;;4996173;28;20030;-79
2023/05/23 11:03:45;;;;;;;20.63;15.20;;;22.90;99.90;;;;;;4998693;28;20741;-80
2023/05/23 11:06:34;;;;;;;23.42;16.30;;;23.40;99.90;;;;;;5000537;28;20026;-81
2023/05/23 11:09:18;;;;;;;20.25;16.17;;;23.60;99.90;;;;;;4997238;28;20025;-81
2023/05/23 11:11:56;;;;;;;19.65;15.20;;;23.90;99.90;;;;;;5002637;28;20498;-81
2023/05/23 11:14:33;;;;;;;17.17;14.25;;;24.00;99.90;;;;;;4998421;28;20026;-82
2023/05/23 11:17:00;;;;;;;18.85;14.88;;;24.10;99.90;;;;;;4997688;28;20498;-79
2023/05/23 11:19:27;;;;;;;16.83;13.95;;;24.10;99.90;;;;;;4996308;28;20026;-80
2023/05/23 11:21:59;;;;;;;16.40;14.45;;;24.40;99.90;;;;;;4997317;28;20045;-80
2023/05/23 11:24:49;;;;;;;19.05;14.98;;;24.40;99.90;;;;;;4995452;28;20550;-80
2023/05/23 11:27:14;;;;;;;20.83;15.75;;;24.60;99.90;;;;;;4996662;28;20034;-80
2023/05/23 11:29:40;;;;;;;16.63;14.10;;;24.70;99.90;;;;;;4999335;28;20092;-80
2023/05/23 11:32:13;;;;;;;16.50;13.93;;;24.50;99.90;;;;;;4997052;28;20038;-81
2023/05/23 11:34:40;;;;;;;17.15;14.73;;;24.50;99.90;;;;;;4996393;28;20045;-81
2023/05/23 11:37:05;;;;;;;20.10;14.98;;;24.40;99.90;;;;;;4996214;28;20097;-81
2023/05/23 11:39:31;;;;;;;19.42;16.33;;;24.30;99.90;;;;;;4994240;28;20075;-83
2023/05/23 11:42:01;;;;;;;20.67;16.60;;;24.00;99.90;;;;;;4996678;28;20785;-80
2023/05/23 11:44:26;;;;;;;17.45;15.52;;;23.60;99.90;;;;;;4996727;28;20034;-80
2023/05/23 11:47:02;;;;;;;17.30;15.43;;;23.20;99.90;;;;;;4994360;28;20045;-82
2023/05/23 11:49:34;;;;;;;21.75;15.73;;;23.00;99.90;;;;;;4998264;28;20553;-83
2023/05/23 11:52:01;;;;;;;21.02;14.90;;;22.90;99.90;;;;;;4997753;28;20435;-81
2023/05/23 11:54:27;;;;;;;16.92;12.82;;;22.90;99.90;;;;;;4995891;28;20034;-82
2023/05/23 11:56:54;;;;;;;17.27;14.52;;;23.20;99.90;;;;;;4994083;28;20090;-81
2023/05/23 11:59:25;;;;;;;17.63;14.00;;;23.40;99.90;;;;;;4996846;28;20030;-79
2023/05/23 12:01:51;;;;;;;18.80;15.20;;;23.60;99.90;;;;;;4995918;28;20034;-79
2023/05/23 12:04:17;;;;;;;17.00;13.65;;;23.70;99.90;;;;;;4995266;28;20038;-79
2023/05/23 12:06:47;;;;;;;15.23;13.55;;;23.70;99.90;;;;;;4995571;28;20041;-79
2023/05/23 12:09:13;;;;;;;17.25;14.88;;;23.60;99.90;;;;;;4995153;28;20041;-80
2023/05/23 12:11:40;;;;;;;18.95;13.57;;;23.50;99.90;;;;;;4995417;28;20558;-80
2023/05/23 12:14:06;;;;;;;16.27;14.18;;;23.30;99.90;;;;;;4995868;28;20034;-80
2023/05/23 12:16:33;;;;;;;20.08;14.25;;;23.10;99.90;;;;;;4995444;28;20034;-80
2023/05/23 12:19:00;;;;;;;21.27;14.95;;;22.80;99.90;;;;;;4995330;28;20504;-79
2023/05/23 12:21:38;;;;;;;21.88;15.98;;;22.50;99.90;;;;;;4996129;28;20080;-80
2023/05/23 12:24:21;;;;;;;16.35;13.88;;;22.30;99.90;;;;;;4996962;28;20045;-82
2023/05/23 12:26:52;;;;;;;16.25;13.70;;;22.50;99.90;;;;;;4994649;28;20101;-81
2023/05/23 12:29:30;;;;;;;16.70;13.40;;;22.70;99.90;;;;;;4996737;28;20359;-80
2023/05/23 12:32:00;;;;;;;15.45;12.68;;;22.90;99.90;;;;;;4993455;28;21365;-81